createdAt,value
2019-02-22T00:04:58.779Z,49.69
2019-02-22T00:09:58.745Z,49.36
2019-02-22T00:14:58.689Z,49.67
2019-02-22T00:19:58.661Z,49.36
2019-02-22T00:24:58.694Z,49.50
2019-02-22T00:29:58.630Z,49.10
2019-02-22T00:34:59.055Z,49.52
2019-02-22T00:39:58.723Z,49.78
2019-02-22T00:44:58.917Z,49.07
2019-02-22T00:49:58.697Z,49.13
2019-02-22T00:54:58.807Z,49.13
2019-02-22T00:59:58.667Z,49.52
2019-02-22T01:04:58.702Z,49.71
2019-02-22T01:09:58.741Z,49.75
2019-02-22T01:14:58.768Z,49.08
2019-02-22T01:19:58.836Z,49.78
2019-02-22T01:24:58.731Z,49.66
2019-02-22T01:29:58.981Z,49.08
2019-02-22T01:34:58.709Z,49.13
2019-02-22T01:39:59.037Z,49.17
2019-02-22T01:44:58.792Z,49.19
2019-02-22T01:49:58.719Z,49.39
2019-02-22T01:54:58.728Z,49.80
2019-02-22T01:59:58.818Z,49.56
2019-02-22T02:04:58.847Z,49.24
2019-02-22T02:09:58.751Z,49.89
2019-02-22T02:14:59.070Z,49.20
2019-02-22T02:19:58.705Z,49.72
2019-02-22T02:24:58.778Z,49.82
2019-02-22T02:29:58.983Z,49.86
2019-02-22T02:34:58.806Z,49.79
2019-02-22T02:39:58.747Z,49.48
2019-02-22T02:44:58.861Z,49.35
2019-02-22T02:49:58.833Z,49.97
2019-02-22T02:54:58.855Z,50.03
2019-02-22T02:59:58.774Z,49.36
2019-02-22T03:04:59.026Z,49.35
2019-02-22T03:09:58.945Z,50.05
2019-02-22T03:14:58.824Z,49.61
2019-02-22T03:19:58.986Z,50.06
2019-02-22T03:24:58.845Z,49.50
2019-02-22T03:29:58.800Z,49.50
2019-02-22T03:34:58.919Z,50.16
2019-02-22T03:39:58.859Z,49.55
2019-02-22T03:44:58.903Z,49.44
2019-02-22T03:49:58.789Z,49.97
2019-02-22T03:54:58.955Z,50.10
2019-02-22T03:59:58.825Z,50.15
2019-02-22T04:04:58.826Z,49.72
2019-02-22T04:09:58.971Z,50.25
2019-02-22T04:14:59.023Z,50.13
2019-02-22T04:19:58.841Z,49.68
2019-02-22T04:24:58.880Z,49.86
2019-02-22T04:29:59.382Z,49.98
2019-02-22T04:34:58.884Z,50.28
2019-02-22T04:39:58.871Z,50.11
2019-02-22T04:44:58.902Z,50.27
2019-02-22T04:49:58.938Z,50.34
2019-02-22T04:54:58.870Z,49.64
2019-02-22T04:59:59.105Z,49.76
2019-02-22T05:04:59.683Z,49.75
2019-02-22T05:09:58.998Z,49.63
2019-02-22T05:15:11.394Z,49.74
2019-02-22T05:19:58.876Z,50.29
2019-02-22T05:24:58.879Z,50.23
2019-02-22T05:29:58.924Z,49.81
2019-02-22T05:34:58.981Z,50.26
2019-02-22T05:39:59.103Z,49.77
2019-02-22T05:44:58.995Z,50.26
2019-02-22T05:49:59.057Z,50.00
2019-02-22T05:54:58.844Z,50.18
2019-02-22T05:59:59.347Z,50.23
2019-02-22T06:04:58.970Z,50.16
2019-02-22T06:09:59.017Z,50.33
2019-02-22T06:14:59.500Z,49.98
2019-02-22T06:19:59.035Z,50.53
2019-02-22T06:24:59.093Z,49.63
2019-02-22T06:29:59.340Z,49.99
2019-02-22T06:35:00.021Z,50.05
2019-02-22T06:39:59.034Z,50.07
2019-02-22T06:44:59.265Z,50.62
2019-02-22T06:49:58.960Z,50.55
2019-02-22T06:54:59.015Z,50.58
2019-02-22T06:59:59.268Z,50.37
2019-02-22T07:04:59.170Z,50.23
2019-02-22T07:09:59.005Z,50.73
2019-02-22T07:14:59.060Z,50.22
2019-02-22T07:19:59.276Z,50.58
2019-02-22T07:24:59.224Z,50.11
2019-02-22T07:29:59.083Z,50.68
2019-02-22T07:34:59.123Z,50.09
2019-02-22T07:39:59.005Z,50.61
2019-02-22T07:44:59.021Z,50.37
2019-02-22T07:49:59.191Z,50.59
2019-02-22T07:54:59.080Z,50.62
2019-02-22T07:59:59.158Z,50.61
2019-02-22T08:04:59.285Z,50.08
2019-02-22T08:09:59.049Z,50.11
2019-02-22T08:14:59.075Z,50.61
2019-02-22T08:19:59.072Z,50.66
2019-02-22T08:24:59.144Z,50.46
2019-02-22T08:29:59.158Z,50.53
2019-02-22T08:34:59.220Z,50.53
2019-02-22T08:40:02.054Z,50.02
2019-02-22T08:44:59.072Z,50.54
2019-02-22T08:49:59.295Z,50.30
2019-02-22T08:54:59.160Z,50.20
2019-02-22T08:59:59.180Z,50.00
2019-02-22T09:04:59.108Z,50.12
2019-02-22T09:09:59.242Z,50.11
2019-02-22T09:14:59.269Z,50.58
2019-02-22T09:19:59.323Z,50.52
2019-02-22T09:24:59.184Z,50.03
2019-02-22T09:29:59.375Z,50.57
2019-02-22T09:34:59.151Z,50.31
2019-02-22T09:39:59.156Z,50.22
2019-02-22T09:44:59.295Z,50.49
2019-02-22T09:49:59.133Z,50.22
2019-02-22T09:54:59.439Z,50.48
2019-02-22T09:59:59.198Z,49.82
2019-02-22T10:04:59.247Z,50.10
2019-02-22T10:09:59.255Z,50.05
2019-02-22T10:14:59.239Z,50.42
2019-02-22T10:20:01.525Z,49.99
2019-02-22T10:24:59.203Z,50.00
2019-02-22T10:29:59.384Z,50.31
2019-02-22T10:34:59.332Z,50.45
2019-02-22T10:39:59.184Z,50.46
2019-02-22T10:44:59.294Z,50.30
2019-02-22T10:49:59.148Z,50.72
2019-02-22T10:54:59.269Z,50.73
2019-02-22T10:59:59.276Z,50.34
2019-02-22T11:04:59.311Z,50.81
2019-02-22T11:09:59.401Z,51.29
2019-02-22T11:14:59.756Z,50.45
2019-02-22T11:19:59.184Z,51.42
2019-02-22T11:24:59.345Z,51.28
2019-02-22T11:29:59.231Z,51.24
2019-02-22T11:34:59.200Z,50.71
2019-02-22T11:39:59.390Z,50.83
2019-02-22T11:44:59.651Z,50.84
2019-02-22T11:49:59.293Z,51.33
2019-02-22T11:54:59.516Z,51.24
2019-02-22T11:59:59.707Z,51.68
2019-02-22T12:04:59.635Z,51.56
2019-02-22T12:09:59.293Z,51.52
2019-02-22T12:14:59.406Z,51.99
2019-02-22T12:19:59.283Z,51.57
2019-02-22T12:24:59.235Z,51.51
2019-02-22T12:29:59.334Z,52.13
2019-02-22T12:34:59.615Z,52.46
2019-02-22T12:39:59.289Z,52.67
2019-02-22T12:45:02.867Z,52.88
2019-02-22T12:49:59.514Z,53.29
2019-02-22T12:54:59.307Z,53.03
2019-02-22T12:59:59.522Z,52.68
2019-02-22T13:04:59.457Z,52.84
2019-02-22T13:09:59.412Z,53.54
2019-02-22T13:14:59.436Z,53.72
2019-02-22T13:19:59.366Z,53.41
2019-02-22T13:24:59.323Z,53.24
2019-02-22T13:29:59.721Z,53.87
2019-02-22T13:34:59.497Z,53.87
2019-02-22T13:39:59.545Z,53.50
2019-02-22T13:44:59.445Z,53.40
2019-02-22T13:49:59.304Z,54.11
2019-02-22T13:54:59.415Z,54.86
2019-02-22T13:59:59.601Z,53.93
2019-02-22T14:04:59.522Z,53.84
2019-02-22T14:09:59.425Z,53.90
2019-02-22T14:14:59.332Z,53.59
2019-02-22T14:20:00.012Z,53.85
2019-02-22T14:24:59.677Z,54.66
2019-02-22T14:29:59.365Z,55.01
2019-02-22T14:34:59.431Z,54.62
2019-02-22T14:40:03.459Z,55.20
2019-02-22T14:45:01.543Z,54.76
2019-02-22T14:49:59.469Z,55.26
2019-02-22T14:55:00.314Z,54.93
2019-02-22T14:59:59.467Z,54.97
2019-02-22T15:04:59.428Z,55.49
2019-02-22T15:09:59.626Z,54.93
2019-02-22T15:14:59.508Z,55.62
2019-02-22T15:19:59.529Z,55.41
2019-02-22T15:24:59.431Z,55.65
2019-02-22T15:29:59.483Z,55.34
2019-02-22T15:34:59.581Z,55.70
2019-02-22T15:39:59.448Z,56.36
2019-02-22T15:44:59.585Z,55.89
2019-02-22T15:49:59.498Z,56.40
2019-02-22T15:54:59.487Z,55.78
2019-02-22T15:59:59.482Z,56.54
2019-02-22T16:04:59.525Z,55.92
2019-02-22T16:09:59.539Z,55.82
2019-02-22T16:14:59.538Z,55.89
2019-02-22T16:19:59.851Z,56.13
2019-02-22T16:24:59.627Z,56.21
2019-02-22T16:29:59.512Z,56.82
2019-02-22T16:34:59.515Z,56.06
2019-02-22T16:39:59.585Z,56.28
2019-02-22T16:44:59.681Z,56.02
2019-02-22T16:49:59.538Z,56.40
2019-02-22T16:54:59.630Z,56.11
2019-02-22T16:59:59.496Z,56.37
2019-02-22T17:04:59.504Z,56.46
2019-02-22T17:09:59.666Z,55.83
2019-02-22T17:14:59.709Z,56.76
2019-02-22T17:19:59.969Z,57.12
2019-02-22T17:25:00.301Z,56.71
2019-02-22T17:29:59.916Z,56.52
2019-02-22T17:34:59.653Z,56.33
2019-02-22T17:39:59.888Z,56.82
2019-02-22T17:44:59.758Z,56.97
2019-02-22T17:49:59.738Z,57.06
2019-02-22T17:54:59.558Z,57.02
2019-02-22T17:59:59.605Z,57.04
2019-02-22T18:04:59.630Z,57.38
2019-02-22T18:09:59.714Z,56.85
2019-02-22T18:14:59.583Z,57.44
2019-02-22T18:19:59.634Z,56.70
2019-02-22T18:24:59.589Z,57.24
2019-02-22T18:29:59.712Z,57.60
2019-02-22T18:34:59.659Z,57.75
2019-02-22T18:39:59.797Z,57.20
2019-02-22T18:44:59.596Z,57.93
2019-02-22T18:49:59.756Z,57.86
2019-02-22T18:54:59.814Z,57.22
2019-02-22T18:59:59.597Z,57.46
2019-02-22T19:04:59.656Z,57.51
2019-02-22T19:09:59.596Z,57.60
2019-02-22T19:14:59.666Z,58.00
2019-02-22T19:20:00.308Z,58.46
2019-02-22T19:24:59.684Z,58.01
2019-02-22T19:29:59.774Z,57.29
2019-02-22T19:34:59.672Z,57.31
2019-02-22T19:39:59.697Z,58.06
2019-02-22T19:44:59.726Z,57.72
2019-02-22T19:49:59.652Z,57.39
2019-02-22T19:54:59.732Z,57.78
2019-02-22T19:59:59.744Z,58.31
2019-02-22T20:04:59.867Z,57.83
2019-02-22T20:09:59.701Z,57.65
2019-02-22T20:14:59.822Z,57.92
2019-02-22T20:19:59.865Z,58.59
2019-02-22T20:24:59.737Z,58.19
2019-02-22T20:29:59.791Z,57.64
2019-02-22T20:34:59.965Z,58.19
2019-02-22T20:39:59.740Z,58.12
2019-02-22T20:44:59.773Z,58.16
2019-02-22T20:49:59.807Z,57.64
2019-02-22T20:54:59.756Z,57.66
2019-02-22T20:59:59.846Z,58.03
2019-02-22T21:05:00.850Z,58.44
2019-02-22T21:09:59.708Z,57.82
2019-02-22T21:14:59.759Z,57.80
2019-02-22T21:19:59.803Z,58.24
2019-02-22T21:24:59.711Z,58.73
2019-02-22T21:29:59.902Z,57.76
2019-02-22T21:34:59.785Z,58.34
2019-02-22T21:40:00.433Z,58.54
2019-02-22T21:44:59.860Z,58.13
2019-02-22T21:49:59.876Z,58.38
2019-02-22T21:54:59.835Z,58.66
2019-02-22T21:59:59.761Z,58.29
2019-02-22T22:04:59.809Z,58.09
2019-02-22T22:09:59.824Z,57.95
2019-02-22T22:14:59.754Z,58.10
2019-02-22T22:19:59.841Z,58.13
2019-02-22T22:24:59.866Z,58.32
2019-02-22T22:30:00.064Z,58.22
2019-02-22T22:34:59.903Z,57.92
2019-02-22T22:39:59.844Z,57.63
2019-02-22T22:44:59.960Z,58.15
2019-02-22T22:49:59.902Z,57.93
2019-02-22T22:55:00.272Z,58.62
2019-02-22T22:59:59.874Z,58.53
2019-02-22T23:04:59.914Z,58.64
2019-02-22T23:09:59.862Z,58.24
2019-02-22T23:15:00.010Z,58.63
2019-02-22T23:19:59.852Z,57.89
2019-02-22T23:24:59.860Z,57.75
2019-02-22T23:30:00.008Z,58.92
2019-02-22T23:34:59.923Z,57.94
2019-02-22T23:39:59.857Z,58.30
2019-02-22T23:44:59.885Z,58.52
2019-02-22T23:50:00.307Z,57.78
2019-02-22T23:54:59.960Z,58.41
2019-02-22T23:59:59.859Z,58.83
